sensor_id;sensor_type;location;lat;lon;timestamp;temperature;humidity
20284;DHT22;10301;50.832;4.080;2022-09-09T00:04:34;15.00;99.90
20284;DHT22;10301;50.832;4.080;2022-09-09T00:09:42;14.90;99.90
20284;DHT22;10301;50.832;4.080;2022-09-09T00:14:59;14.90;99.90
20284;DHT22;10301;50.832;4.080;2022-09-09T00:20:16;15.00;99.90
20284;DHT22;10301;50.832;4.080;2022-09-09T00:22:50;14.90;99.90
20284;DHT22;10301;50.832;4.080;2022-09-09T00:25:28;15.00;99.90
20284;DHT22;10301;50.832;4.080;2022-09-09T00:27:56;14.90;99.90
20284;DHT22;10301;50.832;4.080;2022-09-09T00:30:25;14.90;99.90
20284;DHT22;10301;50.832;4.080;2022-09-09T00:32:59;14.80;99.90
20284;DHT22;10301;50.832;4.080;2022-09-09T00:35:37;14.90;99.90
20284;DHT22;10301;50.832;4.080;2022-09-09T00:38:12;14.90;99.90
20284;DHT22;10301;50.832;4.080;2022-09-09T00:43:36;15.00;99.90
20284;DHT22;10301;50.832;4.080;2022-09-09T00:46:32;15.00;99.90
20284;DHT22;10301;50.832;4.080;2022-09-09T00:49:20;15.00;99.90
20284;DHT22;10301;50.832;4.080;2022-09-09T00:51:59;15.00;99.90
20284;DHT22;10301;50.832;4.080;2022-09-09T00:57:11;15.20;99.90
20284;DHT22;10301;50.832;4.080;2022-09-09T00:59:48;15.20;99.90
20284;DHT22;10301;50.832;4.080;2022-09-09T01:02:21;15.20;99.90
20284;DHT22;10301;50.832;4.080;2022-09-09T01:04:50;15.20;99.90
20284;DHT22;10301;50.832;4.080;2022-09-09T01:07:17;15.20;99.90
20284;DHT22;10301;50.832;4.080;2022-09-09T01:09:58;15.20;99.90
20284;DHT22;10301;50.832;4.080;2022-09-09T01:12:34;15.40;99.90
20284;DHT22;10301;50.832;4.080;2022-09-09T01:17:34;15.50;99.90
20284;DHT22;10301;50.832;4.080;2022-09-09T01:20:26;15.60;99.90
20284;DHT22;10301;50.832;4.080;2022-09-09T01:23:16;15.60;99.90
20284;DHT22;10301;50.832;4.080;2022-09-09T01:28:31;15.50;99.90
20284;DHT22;10301;50.832;4.080;2022-09-09T01:31:00;15.50;99.90
20284;DHT22;10301;50.832;4.080;2022-09-09T01:33:30;15.40;99.90
20284;DHT22;10301;50.832;4.080;2022-09-09T01:36:00;15.50;99.90
20284;DHT22;10301;50.832;4.080;2022-09-09T01:38:29;15.60;99.90
20284;DHT22;10301;50.832;4.080;2022-09-09T01:40:56;15.40;99.90
20284;DHT22;10301;50.832;4.080;2022-09-09T01:43:24;15.50;99.90
20284;DHT22;10301;50.832;4.080;2022-09-09T01:45:53;15.50;99.90
20284;DHT22;10301;50.832;4.080;2022-09-09T01:48:22;15.40;99.90
20284;DHT22;10301;50.832;4.080;2022-09-09T01:50:48;15.40;99.90
20284;DHT22;10301;50.832;4.080;2022-09-09T01:53:15;15.40;99.90
20284;DHT22;10301;50.832;4.080;2022-09-09T01:59:16;15.20;99.90
20284;DHT22;10301;50.832;4.080;2022-09-09T02:04:43;15.20;99.90
20284;DHT22;10301;50.832;4.080;2022-09-09T02:07:27;15.10;99.90
20284;DHT22;10301;50.832;4.080;2022-09-09T02:10:05;15.10;99.90
20284;DHT22;10301;50.832;4.080;2022-09-09T02:12:35;15.10;99.90
20284;DHT22;10301;50.832;4.080;2022-09-09T02:15:07;15.00;99.90
20284;DHT22;10301;50.832;4.080;2022-09-09T02:17:36;15.10;99.90
20284;DHT22;10301;50.832;4.080;2022-09-09T02:20:14;15.00;99.90
20284;DHT22;10301;50.832;4.080;2022-09-09T02:22:42;14.90;99.90
20284;DHT22;10301;50.832;4.080;2022-09-09T02:25:12;14.90;99.90
20284;DHT22;10301;50.832;4.080;2022-09-09T02:27:41;14.90;99.90
20284;DHT22;10301;50.832;4.080;2022-09-09T02:30:09;14.90;99.90
20284;DHT22;10301;50.832;4.080;2022-09-09T02:32:36;15.00;99.90
20284;DHT22;10301;50.832;4.080;2022-09-09T02:35:10;14.90;99.90
20284;DHT22;10301;50.832;4.080;2022-09-09T02:37:38;14.90;99.90
20284;DHT22;10301;50.832;4.080;2022-09-09T02:40:06;14.90;99.90
20284;DHT22;10301;50.832;4.080;2022-09-09T02:42:45;14.80;99.90
20284;DHT22;10301;50.832;4.080;2022-09-09T02:45:15;14.90;99.90
20284;DHT22;10301;50.832;4.080;2022-09-09T02:48:09;14.90;99.90
20284;DHT22;10301;50.832;4.080;2022-09-09T02:53:49;15.00;99.90
20284;DHT22;10301;50.832;4.080;2022-09-09T02:56:18;15.00;99.90
20284;DHT22;10301;50.832;4.080;2022-09-09T02:58:45;15.00;99.90
20284;DHT22;10301;50.832;4.080;2022-09-09T03:01:12;15.00;99.90
20284;DHT22;10301;50.832;4.080;2022-09-09T03:03:37;15.20;99.90
20284;DHT22;10301;50.832;4.080;2022-09-09T03:06:03;15.20;99.90
20284;DHT22;10301;50.832;4.080;2022-09-09T03:08:31;15.10;99.90
20284;DHT22;10301;50.832;4.080;2022-09-09T03:10:58;15.00;99.90
20284;DHT22;10301;50.832;4.080;2022-09-09T03:13:26;15.00;99.90
20284;DHT22;10301;50.832;4.080;2022-09-09T03:15:52;15.10;99.90
20284;DHT22;10301;50.832;4.080;2022-09-09T03:18:17;15.10;99.90
20284;DHT22;10301;50.832;4.080;2022-09-09T03:20:43;15.10;99.90
20284;DHT22;10301;50.832;4.080;2022-09-09T03:23:09;15.00;99.90
20284;DHT22;10301;50.832;4.080;2022-09-09T03:25:34;15.00;99.90
20284;DHT22;10301;50.832;4.080;2022-09-09T03:28:01;15.20;99.90
20284;DHT22;10301;50.832;4.080;2022-09-09T03:30:28;15.20;99.90
20284;DHT22;10301;50.832;4.080;2022-09-09T03:32:54;15.20;99.90
20284;DHT22;10301;50.832;4.080;2022-09-09T03:35:21;15.30;99.90
20284;DHT22;10301;50.832;4.080;2022-09-09T03:37:47;15.30;99.90
20284;DHT22;10301;50.832;4.080;2022-09-09T03:40:13;15.40;99.90
20284;DHT22;10301;50.832;4.080;2022-09-09T03:42:39;15.40;99.90
20284;DHT22;10301;50.832;4.080;2022-09-09T03:45:07;15.40;99.90
20284;DHT22;10301;50.832;4.080;2022-09-09T03:47:34;15.40;99.90
20284;DHT22;10301;50.832;4.080;2022-09-09T03:50:00;15.30;99.90
20284;DHT22;10301;50.832;4.080;2022-09-09T03:52:26;15.30;99.90
20284;DHT22;10301;50.832;4.080;2022-09-09T03:54:53;15.40;99.90
20284;DHT22;10301;50.832;4.080;2022-09-09T03:57:19;15.40;99.90
20284;DHT22;10301;50.832;4.080;2022-09-09T03:59:45;15.50;99.90
20284;DHT22;10301;50.832;4.080;2022-09-09T04:02:11;15.50;99.90
20284;DHT22;10301;50.832;4.080;2022-09-09T04:04:36;15.70;99.90
20284;DHT22;10301;50.832;4.080;2022-09-09T04:07:02;15.60;99.90
20284;DHT22;10301;50.832;4.080;2022-09-09T04:09:28;15.50;99.90
20284;DHT22;10301;50.832;4.080;2022-09-09T04:11:53;15.40;99.90
20284;DHT22;10301;50.832;4.080;2022-09-09T04:14:20;15.30;99.90
20284;DHT22;10301;50.832;4.080;2022-09-09T04:16:46;15.30;99.90
20284;DHT22;10301;50.832;4.080;2022-09-09T04:19:12;15.30;99.90
20284;DHT22;10301;50.832;4.080;2022-09-09T04:21:42;15.30;99.90
20284;DHT22;10301;50.832;4.080;2022-09-09T04:24:08;15.20;99.90
20284;DHT22;10301;50.832;4.080;2022-09-09T04:26:35;15.20;99.90
20284;DHT22;10301;50.832;4.080;2022-09-09T04:29:02;15.20;99.90
20284;DHT22;10301;50.832;4.080;2022-09-09T04:31:28;15.30;99.90
20284;DHT22;10301;50.832;4.080;2022-09-09T04:33:54;15.30;99.90
20284;DHT22;10301;50.832;4.080;2022-09-09T04:36:20;15.20;99.90
20284;DHT22;10301;50.832;4.080;2022-09-09T04:38:46;15.20;99.90
20284;DHT22;10301;50.832;4.080;2022-09-09T04:41:14;15.20;99.90
20284;DHT22;10301;50.832;4.080;2022-09-09T04:43:40;15.20;99.90
20284;DHT22;10301;50.832;4.080;2022-09-09T04:46:06;15.20;99.90
20284;DHT22;10301;50.832;4.080;2022-09-09T04:48:32;15.20;99.90
20284;DHT22;10301;50.832;4.080;2022-09-09T04:51:02;15.20;99.90
20284;DHT22;10301;50.832;4.080;2022-09-09T04:53:30;15.30;99.90
20284;DHT22;10301;50.832;4.080;2022-09-09T04:56:07;15.20;99.90
20284;DHT22;10301;50.832;4.080;2022-09-09T04:58:33;15.20;99.90
20284;DHT22;10301;50.832;4.080;2022-09-09T05:01:11;15.30;99.90
20284;DHT22;10301;50.832;4.080;2022-09-09T05:03:37;15.30;99.90
20284;DHT22;10301;50.832;4.080;2022-09-09T05:06:10;15.50;99.90
20284;DHT22;10301;50.832;4.080;2022-09-09T05:08:37;15.40;99.90
20284;DHT22;10301;50.832;4.080;2022-09-09T05:11:13;15.30;99.90
20284;DHT22;10301;50.832;4.080;2022-09-09T05:13:39;15.40;99.90
20284;DHT22;10301;50.832;4.080;2022-09-09T05:16:05;15.40;99.90
20284;DHT22;10301;50.832;4.080;2022-09-09T05:18:31;15.40;99.90
20284;DHT22;10301;50.832;4.080;2022-09-09T05:21:00;15.40;99.90
20284;DHT22;10301;50.832;4.080;2022-09-09T05:23:26;15.40;99.90
20284;DHT22;10301;50.832;4.080;2022-09-09T05:25:56;15.40;99.90
20284;DHT22;10301;50.832;4.080;2022-09-09T05:28:22;15.40;99.90
20284;DHT22;10301;50.832;4.080;2022-09-09T05:31:05;15.40;99.90
20284;DHT22;10301;50.832;4.080;2022-09-09T05:33:34;15.40;99.90
20284;DHT22;10301;50.832;4.080;2022-09-09T05:36:05;15.40;99.90
20284;DHT22;10301;50.832;4.080;2022-09-09T05:38:32;15.50;99.90
20284;DHT22;10301;50.832;4.080;2022-09-09T05:41:01;15.50;99.90
20284;DHT22;10301;50.832;4.080;2022-09-09T05:43:28;15.50;99.90
20284;DHT22;10301;50.832;4.080;2022-09-09T05:46:05;15.50;99.90
20284;DHT22;10301;50.832;4.080;2022-09-09T05:48:32;15.40;99.90
20284;DHT22;10301;50.832;4.080;2022-09-09T05:50:59;15.50;99.90
20284;DHT22;10301;50.832;4.080;2022-09-09T05:53:26;15.50;99.90
20284;DHT22;10301;50.832;4.080;2022-09-09T05:56:00;15.50;99.90
20284;DHT22;10301;50.832;4.080;2022-09-09T05:58:29;15.50;99.90
20284;DHT22;10301;50.832;4.080;2022-09-09T06:01:09;15.60;99.90
20284;DHT22;10301;50.832;4.080;2022-09-09T06:03:37;15.70;99.90
20284;DHT22;10301;50.832;4.080;2022-09-09T06:06:06;15.70;99.90
20284;DHT22;10301;50.832;4.080;2022-09-09T06:08:33;15.60;99.90
20284;DHT22;10301;50.832;4.080;2022-09-09T06:11:04;15.70;99.90
20284;DHT22;10301;50.832;4.080;2022-09-09T06:13:30;15.80;99.90
20284;DHT22;10301;50.832;4.080;2022-09-09T06:15:56;15.90;99.90
20284;DHT22;10301;50.832;4.080;2022-09-09T06:18:23;16.00;99.90
20284;DHT22;10301;50.832;4.080;2022-09-09T06:21:06;16.00;99.90
20284;DHT22;10301;50.832;4.080;2022-09-09T06:23:33;16.10;99.90
20284;DHT22;10301;50.832;4.080;2022-09-09T06:28:35;16.20;99.90
20284;DHT22;10301;50.832;4.080;2022-09-09T06:31:04;16.30;99.90
20284;DHT22;10301;50.832;4.080;2022-09-09T06:33:34;16.40;99.90
20284;DHT22;10301;50.832;4.080;2022-09-09T06:36:02;16.20;99.90
20284;DHT22;10301;50.832;4.080;2022-09-09T06:38:29;16.30;99.90
20284;DHT22;10301;50.832;4.080;2022-09-09T06:40:55;16.40;99.90
20284;DHT22;10301;50.832;4.080;2022-09-09T06:43:25;16.40;99.90
20284;DHT22;10301;50.832;4.080;2022-09-09T06:48:30;16.70;99.90
20284;DHT22;10301;50.832;4.080;2022-09-09T06:51:06;16.60;99.90
20284;DHT22;10301;50.832;4.080;2022-09-09T06:53:34;16.70;99.90
20284;DHT22;10301;50.832;4.080;2022-09-09T06:58:42;16.70;99.90
20284;DHT22;10301;50.832;4.080;2022-09-09T07:01:16;16.90;99.90
20284;DHT22;10301;50.832;4.080;2022-09-09T07:03:45;17.00;99.90
20284;DHT22;10301;50.832;4.080;2022-09-09T07:06:25;16.80;99.90
20284;DHT22;10301;50.832;4.080;2022-09-09T07:08:55;17.00;99.90
20284;DHT22;10301;50.832;4.080;2022-09-09T07:11:23;16.90;99.90
20284;DHT22;10301;50.832;4.080;2022-09-09T07:13:49;16.90;99.90
20284;DHT22;10301;50.832;4.080;2022-09-09T07:16:19;16.80;99.90
20284;DHT22;10301;50.832;4.080;2022-09-09T07:18:46;16.50;99.90
20284;DHT22;10301;50.832;4.080;2022-09-09T07:21:13;16.50;99.90
20284;DHT22;10301;50.832;4.080;2022-09-09T07:23:40;16.40;99.90
20284;DHT22;10301;50.832;4.080;2022-09-09T07:26:11;16.60;99.90
20284;DHT22;10301;50.832;4.080;2022-09-09T07:28:37;16.50;99.90
20284;DHT22;10301;50.832;4.080;2022-09-09T07:31:04;16.70;99.90
20284;DHT22;10301;50.832;4.080;2022-09-09T07:33:32;16.80;99.90
20284;DHT22;10301;50.832;4.080;2022-09-09T07:36:10;16.90;99.90
20284;DHT22;10301;50.832;4.080;2022-09-09T07:38:49;17.00;99.90
20284;DHT22;10301;50.832;4.080;2022-09-09T07:41:23;17.00;99.90
20284;DHT22;10301;50.832;4.080;2022-09-09T07:43:49;17.10;99.90
20284;DHT22;10301;50.832;4.080;2022-09-09T07:46:17;17.00;99.90
20284;DHT22;10301;50.832;4.080;2022-09-09T07:48:53;17.10;99.90
20284;DHT22;10301;50.832;4.080;2022-09-09T07:51:26;17.20;99.90
20284;DHT22;10301;50.832;4.080;2022-09-09T07:53:54;17.50;99.90
20284;DHT22;10301;50.832;4.080;2022-09-09T07:56:21;17.80;99.90
20284;DHT22;10301;50.832;4.080;2022-09-09T07:58:50;17.80;99.90
20284;DHT22;10301;50.832;4.080;2022-09-09T08:01:40;17.70;99.90
20284;DHT22;10301;50.832;4.080;2022-09-09T08:04:08;17.80;99.90
20284;DHT22;10301;50.832;4.080;2022-09-09T08:06:40;18.10;99.90
20284;DHT22;10301;50.832;4.080;2022-09-09T08:09:07;18.00;99.90
20284;DHT22;10301;50.832;4.080;2022-09-09T08:11:34;17.90;99.90
20284;DHT22;10301;50.832;4.080;2022-09-09T08:14:02;17.90;99.90
20284;DHT22;10301;50.832;4.080;2022-09-09T08:16:33;17.80;99.90
20284;DHT22;10301;50.832;4.080;2022-09-09T08:18:59;17.70;99.90
20284;DHT22;10301;50.832;4.080;2022-09-09T08:21:28;17.40;99.90
20284;DHT22;10301;50.832;4.080;2022-09-09T08:23:55;17.20;99.90
20284;DHT22;10301;50.832;4.080;2022-09-09T08:26:23;17.20;99.90
20284;DHT22;10301;50.832;4.080;2022-09-09T08:28:50;17.10;99.90
20284;DHT22;10301;50.832;4.080;2022-09-09T08:31:22;17.10;99.90
20284;DHT22;10301;50.832;4.080;2022-09-09T08:33:49;17.10;99.90
20284;DHT22;10301;50.832;4.080;2022-09-09T08:36:17;17.00;99.90
20284;DHT22;10301;50.832;4.080;2022-09-09T08:38:43;17.00;99.90
20284;DHT22;10301;50.832;4.080;2022-09-09T08:51:57;16.90;99.90
20284;DHT22;10301;50.832;4.080;2022-09-09T08:54:23;17.00;99.90
20284;DHT22;10301;50.832;4.080;2022-09-09T08:56:54;17.10;99.90
20284;DHT22;10301;50.832;4.080;2022-09-09T08:59:19;17.10;99.90
20284;DHT22;10301;50.832;4.080;2022-09-09T09:04:47;17.30;99.90
20284;DHT22;10301;50.832;4.080;2022-09-09T09:12:48;17.60;99.90
20284;DHT22;10301;50.832;4.080;2022-09-09T09:15:20;17.80;99.90
20284;DHT22;10301;50.832;4.080;2022-09-09T09:17:46;17.70;99.90
20284;DHT22;10301;50.832;4.080;2022-09-09T09:20:15;17.50;99.90
20284;DHT22;10301;50.832;4.080;2022-09-09T09:22:49;17.40;99.90
20284;DHT22;10301;50.832;4.080;2022-09-09T09:25:34;17.50;99.90
20284;DHT22;10301;50.832;4.080;2022-09-09T09:28:16;17.50;99.90
20284;DHT22;10301;50.832;4.080;2022-09-09T09:30:54;17.50;99.90
20284;DHT22;10301;50.832;4.080;2022-09-09T09:36:01;17.40;99.90
20284;DHT22;10301;50.832;4.080;2022-09-09T09:38:28;17.50;99.90
20284;DHT22;10301;50.832;4.080;2022-09-09T09:40:59;17.50;99.90
20284;DHT22;10301;50.832;4.080;2022-09-09T09:43:28;17.40;99.90
20284;DHT22;10301;50.832;4.080;2022-09-09T09:45:55;17.70;99.90
20284;DHT22;10301;50.832;4.080;2022-09-09T09:48:21;17.80;99.90
20284;DHT22;10301;50.832;4.080;2022-09-09T09:50:58;17.60;99.90
20284;DHT22;10301;50.832;4.080;2022-09-09T09:53:28;17.60;99.90
20284;DHT22;10301;50.832;4.080;2022-09-09T09:56:08;17.90;99.90
20284;DHT22;10301;50.832;4.080;2022-09-09T09:58:49;18.00;99.90
20284;DHT22;10301;50.832;4.080;2022-09-09T10:01:28;18.10;99.90
20284;DHT22;10301;50.832;4.080;2022-09-09T10:04:12;18.00;99.90
20284;DHT22;10301;50.832;4.080;2022-09-09T10:06:39;18.40;99.90
20284;DHT22;10301;50.832;4.080;2022-09-09T10:09:24;18.40;99.90
20284;DHT22;10301;50.832;4.080;2022-09-09T10:15:00;18.60;99.90
20284;DHT22;10301;50.832;4.080;2022-09-09T10:20:43;18.80;99.90
20284;DHT22;10301;50.832;4.080;2022-09-09T10:34:56;19.30;99.90
20284;DHT22;10301;50.832;4.080;2022-09-09T10:37:46;19.20;99.90
20284;DHT22;10301;50.832;4.080;2022-09-09T10:42:47;19.50;99.90
20284;DHT22;10301;50.832;4.080;2022-09-09T10:45:26;19.60;99.90
20284;DHT22;10301;50.832;4.080;2022-09-09T10:55:55;20.00;99.90
20284;DHT22;10301;50.832;4.080;2022-09-09T10:58:27;20.20;99.90
20284;DHT22;10301;50.832;4.080;2022-09-09T11:00:58;20.00;99.90
20284;DHT22;10301;50.832;4.080;2022-09-09T11:03:28;20.00;99.90
20284;DHT22;10301;50.832;4.080;2022-09-09T11:06:00;20.00;99.90
20284;DHT22;10301;50.832;4.080;2022-09-09T11:08:30;20.00;99.90
20284;DHT22;10301;50.832;4.080;2022-09-09T11:11:20;20.30;99.90
20284;DHT22;10301;50.832;4.080;2022-09-09T11:13:56;20.20;99.90
20284;DHT22;10301;50.832;4.080;2022-09-09T11:16:39;20.00;99.90
20284;DHT22;10301;50.832;4.080;2022-09-09T11:19:23;20.20;99.90
20284;DHT22;10301;50.832;4.080;2022-09-09T11:21:50;20.00;99.90
20284;DHT22;10301;50.832;4.080;2022-09-09T11:24:40;19.80;99.90
20284;DHT22;10301;50.832;4.080;2022-09-09T11:35:33;19.80;99.90
20284;DHT22;10301;50.832;4.080;2022-09-09T11:40:45;19.90;99.90
20284;DHT22;10301;50.832;4.080;2022-09-09T11:43:19;19.70;99.90
20284;DHT22;10301;50.832;4.080;2022-09-09T11:45:59;19.60;99.90
20284;DHT22;10301;50.832;4.080;2022-09-09T11:48:32;19.80;99.90
20284;DHT22;10301;50.832;4.080;2022-09-09T11:51:10;19.80;99.90
20284;DHT22;10301;50.832;4.080;2022-09-09T11:53:49;19.70;99.90
20284;DHT22;10301;50.832;4.080;2022-09-09T11:56:44;19.70;99.90
20284;DHT22;10301;50.832;4.080;2022-09-09T11:59:25;19.90;99.90
20284;DHT22;10301;50.832;4.080;2022-09-09T12:01:55;20.00;99.90
20284;DHT22;10301;50.832;4.080;2022-09-09T12:19:40;20.50;99.90
20284;DHT22;10301;50.832;4.080;2022-09-09T12:25:01;20.80;99.90
20284;DHT22;10301;50.832;4.080;2022-09-09T12:27:58;20.80;99.90
20284;DHT22;10301;50.832;4.080;2022-09-09T12:30:32;20.70;99.90
20284;DHT22;10301;50.832;4.080;2022-09-09T12:33:10;20.50;99.90
20284;DHT22;10301;50.832;4.080;2022-09-09T12:35:37;20.50;99.90
20284;DHT22;10301;50.832;4.080;2022-09-09T12:38:05;20.80;99.90
20284;DHT22;10301;50.832;4.080;2022-09-09T12:40:34;20.90;99.90
20284;DHT22;10301;50.832;4.080;2022-09-09T12:43:20;20.90;99.90
20284;DHT22;10301;50.832;4.080;2022-09-09T12:45:47;20.80;99.90
20284;DHT22;10301;50.832;4.080;2022-09-09T12:48:17;20.70;99.90
20284;DHT22;10301;50.832;4.080;2022-09-09T12:50:46;20.60;99.90
20284;DHT22;10301;50.832;4.080;2022-09-09T12:53:22;20.60;99.90
20284;DHT22;10301;50.832;4.080;2022-09-09T12:56:03;20.40;99.90
20284;DHT22;10301;50.832;4.080;2022-09-09T12:58:30;20.40;99.90
20284;DHT22;10301;50.832;4.080;2022-09-09T13:00:59;20.60;99.90
20284;DHT22;10301;50.832;4.080;2022-09-09T13:03:26;20.60;99.90
20284;DHT22;10301;50.832;4.080;2022-09-09T13:05:53;20.80;99.90
20284;DHT22;10301;50.832;4.080;2022-09-09T13:08:19;20.80;99.90
20284;DHT22;10301;50.832;4.080;2022-09-09T13:11:01;20.90;99.90
20284;DHT22;10301;50.832;4.080;2022-09-09T13:13:37;20.80;99.90
20284;DHT22;10301;50.832;4.080;2022-09-09T13:16:05;20.90;99.90
20284;DHT22;10301;50.832;4.080;2022-09-09T13:18:35;21.10;99.90
20284;DHT22;10301;50.832;4.080;2022-09-09T13:21:01;21.30;99.90
20284;DHT22;10301;50.832;4.080;2022-09-09T13:23:30;21.60;99.90
20284;DHT22;10301;50.832;4.080;2022-09-09T13:25:59;22.00;99.90
20284;DHT22;10301;50.832;4.080;2022-09-09T13:28:28;22.10;99.90
20284;DHT22;10301;50.832;4.080;2022-09-09T13:31:03;22.10;99.90
20284;DHT22;10301;50.832;4.080;2022-09-09T13:33:38;22.10;99.90
20284;DHT22;10301;50.832;4.080;2022-09-09T13:36:09;22.10;99.90
20284;DHT22;10301;50.832;4.080;2022-09-09T13:38:53;21.90;99.90
20284;DHT22;10301;50.832;4.080;2022-09-09T13:41:21;21.80;99.90
20284;DHT22;10301;50.832;4.080;2022-09-09T13:43:49;21.80;99.90
20284;DHT22;10301;50.832;4.080;2022-09-09T13:46:38;21.60;99.90
20284;DHT22;10301;50.832;4.080;2022-09-09T13:54:06;21.90;99.90
20284;DHT22;10301;50.832;4.080;2022-09-09T13:56:33;21.70;99.90
20284;DHT22;10301;50.832;4.080;2022-09-09T13:58:59;21.90;99.90
20284;DHT22;10301;50.832;4.080;2022-09-09T14:01:24;21.90;99.90
20284;DHT22;10301;50.832;4.080;2022-09-09T14:03:50;22.00;99.90
20284;DHT22;10301;50.832;4.080;2022-09-09T14:06:16;22.00;99.90
20284;DHT22;10301;50.832;4.080;2022-09-09T14:08:44;21.80;99.90
20284;DHT22;10301;50.832;4.080;2022-09-09T14:11:12;22.00;99.90
20284;DHT22;10301;50.832;4.080;2022-09-09T14:13:38;22.20;99.90
20284;DHT22;10301;50.832;4.080;2022-09-09T14:16:04;21.90;99.90
20284;DHT22;10301;50.832;4.080;2022-09-09T14:18:30;21.90;99.90
20284;DHT22;10301;50.832;4.080;2022-09-09T14:20:56;22.10;99.90
20284;DHT22;10301;50.832;4.080;2022-09-09T14:23:22;22.20;99.90
20284;DHT22;10301;50.832;4.080;2022-09-09T14:25:51;22.60;99.90
20284;DHT22;10301;50.832;4.080;2022-09-09T14:28:17;22.60;99.90
20284;DHT22;10301;50.832;4.080;2022-09-09T14:30:44;22.40;99.90
20284;DHT22;10301;50.832;4.080;2022-09-09T14:33:11;22.40;99.90
20284;DHT22;10301;50.832;4.080;2022-09-09T14:35:37;22.40;99.90
20284;DHT22;10301;50.832;4.080;2022-09-09T14:38:04;22.60;99.90
20284;DHT22;10301;50.832;4.080;2022-09-09T14:40:30;22.50;99.90
20284;DHT22;10301;50.832;4.080;2022-09-09T14:42:56;22.60;99.90
20284;DHT22;10301;50.832;4.080;2022-09-09T14:45:26;22.50;99.90
20284;DHT22;10301;50.832;4.080;2022-09-09T14:47:52;22.50;99.90
20284;DHT22;10301;50.832;4.080;2022-09-09T14:50:19;22.20;99.90
20284;DHT22;10301;50.832;4.080;2022-09-09T14:52:45;22.10;99.90
20284;DHT22;10301;50.832;4.080;2022-09-09T14:55:10;22.20;99.90
20284;DHT22;10301;50.832;4.080;2022-09-09T14:57:37;22.20;99.90
20284;DHT22;10301;50.832;4.080;2022-09-09T15:00:04;21.80;99.90
20284;DHT22;10301;50.832;4.080;2022-09-09T15:02:31;21.80;99.90
20284;DHT22;10301;50.832;4.080;2022-09-09T15:04:56;21.70;99.90
20284;DHT22;10301;50.832;4.080;2022-09-09T15:07:26;21.80;99.90
20284;DHT22;10301;50.832;4.080;2022-09-09T15:09:54;21.80;99.90
20284;DHT22;10301;50.832;4.080;2022-09-09T15:12:20;21.70;99.90
20284;DHT22;10301;50.832;4.080;2022-09-09T15:14:46;22.00;99.90
20284;DHT22;10301;50.832;4.080;2022-09-09T15:17:12;22.00;99.90
20284;DHT22;10301;50.832;4.080;2022-09-09T15:19:38;22.00;99.90
20284;DHT22;10301;50.832;4.080;2022-09-09T15:22:05;21.90;99.90
20284;DHT22;10301;50.832;4.080;2022-09-09T15:24:32;21.90;99.90
20284;DHT22;10301;50.832;4.080;2022-09-09T15:26:57;22.00;99.90
20284;DHT22;10301;50.832;4.080;2022-09-09T15:29:24;22.20;99.90
20284;DHT22;10301;50.832;4.080;2022-09-09T15:31:49;22.10;99.90
20284;DHT22;10301;50.832;4.080;2022-09-09T15:34:15;22.10;99.90
20284;DHT22;10301;50.832;4.080;2022-09-09T15:36:42;22.10;99.90
20284;DHT22;10301;50.832;4.080;2022-09-09T15:39:11;22.10;99.90
20284;DHT22;10301;50.832;4.080;2022-09-09T15:41:41;22.10;99.90
20284;DHT22;10301;50.832;4.080;2022-09-09T15:44:08;22.00;99.90
20284;DHT22;10301;50.832;4.080;2022-09-09T15:46:48;22.00;99.90
20284;DHT22;10301;50.832;4.080;2022-09-09T15:49:25;21.90;99.90
20284;DHT22;10301;50.832;4.080;2022-09-09T15:51:56;21.70;99.90
20284;DHT22;10301;50.832;4.080;2022-09-09T15:54:24;21.70;99.90
20284;DHT22;10301;50.832;4.080;2022-09-09T15:56:55;21.40;99.90
20284;DHT22;10301;50.832;4.080;2022-09-09T15:59:25;21.30;99.90
20284;DHT22;10301;50.832;4.080;2022-09-09T16:01:54;21.00;99.90
20284;DHT22;10301;50.832;4.080;2022-09-09T16:04:21;20.30;99.90
20284;DHT22;10301;50.832;4.080;2022-09-09T16:07:09;20.10;99.90
20284;DHT22;10301;50.832;4.080;2022-09-09T16:09:35;20.00;99.90
20284;DHT22;10301;50.832;4.080;2022-09-09T16:12:02;19.90;99.90
20284;DHT22;10301;50.832;4.080;2022-09-09T16:14:31;19.90;99.90
20284;DHT22;10301;50.832;4.080;2022-09-09T16:16:59;20.00;99.90
20284;DHT22;10301;50.832;4.080;2022-09-09T16:19:25;20.30;99.90
20284;DHT22;10301;50.832;4.080;2022-09-09T16:21:51;20.50;99.90
20284;DHT22;10301;50.832;4.080;2022-09-09T16:24:18;20.70;99.90
20284;DHT22;10301;50.832;4.080;2022-09-09T16:26:46;20.80;99.90
20284;DHT22;10301;50.832;4.080;2022-09-09T16:29:13;20.90;99.90
20284;DHT22;10301;50.832;4.080;2022-09-09T16:31:39;21.00;99.90
20284;DHT22;10301;50.832;4.080;2022-09-09T16:34:08;21.20;99.90
20284;DHT22;10301;50.832;4.080;2022-09-09T16:36:36;21.30;99.90
20284;DHT22;10301;50.832;4.080;2022-09-09T16:39:10;21.40;99.90
20284;DHT22;10301;50.832;4.080;2022-09-09T16:41:37;21.40;99.90
20284;DHT22;10301;50.832;4.080;2022-09-09T16:44:05;21.50;99.90
20284;DHT22;10301;50.832;4.080;2022-09-09T16:46:33;21.40;99.90
20284;DHT22;10301;50.832;4.080;2022-09-09T16:49:00;21.10;99.90
20284;DHT22;10301;50.832;4.080;2022-09-09T16:51:31;21.00;99.90
20284;DHT22;10301;50.832;4.080;2022-09-09T16:54:02;21.10;99.90
20284;DHT22;10301;50.832;4.080;2022-09-09T16:56:30;21.20;99.90
20284;DHT22;10301;50.832;4.080;2022-09-09T16:58:58;21.30;99.90
20284;DHT22;10301;50.832;4.080;2022-09-09T17:01:25;21.20;99.90
20284;DHT22;10301;50.832;4.080;2022-09-09T17:03:58;21.10;99.90
20284;DHT22;10301;50.832;4.080;2022-09-09T17:06:24;21.40;99.90
20284;DHT22;10301;50.832;4.080;2022-09-09T17:08:58;21.30;99.90
20284;DHT22;10301;50.832;4.080;2022-09-09T17:11:26;21.00;99.90
20284;DHT22;10301;50.832;4.080;2022-09-09T17:13:53;20.50;99.90
20284;DHT22;10301;50.832;4.080;2022-09-09T17:16:22;20.30;99.90
20284;DHT22;10301;50.832;4.080;2022-09-09T17:18:49;20.10;99.90
20284;DHT22;10301;50.832;4.080;2022-09-09T17:21:18;20.00;99.90
20284;DHT22;10301;50.832;4.080;2022-09-09T17:23:44;19.80;99.90
20284;DHT22;10301;50.832;4.080;2022-09-09T17:26:13;19.60;99.90
20284;DHT22;10301;50.832;4.080;2022-09-09T17:28:40;19.50;99.90
20284;DHT22;10301;50.832;4.080;2022-09-09T17:31:07;19.50;99.90
20284;DHT22;10301;50.832;4.080;2022-09-09T17:33:34;19.30;99.90
20284;DHT22;10301;50.832;4.080;2022-09-09T17:36:05;19.20;99.90
20284;DHT22;10301;50.832;4.080;2022-09-09T17:38:32;19.10;99.90
20284;DHT22;10301;50.832;4.080;2022-09-09T17:41:03;19.10;99.90
20284;DHT22;10301;50.832;4.080;2022-09-09T17:43:29;19.00;99.90
20284;DHT22;10301;50.832;4.080;2022-09-09T17:45:54;18.90;99.90
20284;DHT22;10301;50.832;4.080;2022-09-09T17:48:20;18.70;99.90
20284;DHT22;10301;50.832;4.080;2022-09-09T17:50:45;18.70;99.90
20284;DHT22;10301;50.832;4.080;2022-09-09T17:53:11;18.70;99.90